sensor_id;sensor_type;location;lat;lon;timestamp;P1;durP1;ratioP1;P2;durP2;ratioP2
53890;SDS011;41337;51.400;-2.342;2023-07-28T00:00:26;1.77;;;0.50;;
53890;SDS011;41337;51.400;-2.342;2023-07-28T00:05:27;1.50;;;0.50;;
53890;SDS011;41337;51.400;-2.342;2023-07-28T00:10:28;0.32;;;0.32;;
53890;SDS011;41337;51.400;-2.342;2023-07-28T00:15:30;0.90;;;0.40;;
53890;SDS011;41337;51.400;-2.342;2023-07-28T00:20:31;1.33;;;0.57;;
53890;SDS011;41337;51.400;-2.342;2023-07-28T00:25:32;2.17;;;0.68;;
53890;SDS011;41337;51.400;-2.342;2023-07-28T00:30:33;0.65;;;0.50;;
53890;SDS011;41337;51.400;-2.342;2023-07-28T00:35:33;1.42;;;0.70;;
53890;SDS011;41337;51.400;-2.342;2023-07-28T00:40:35;1.67;;;0.70;;
53890;SDS011;41337;51.400;-2.342;2023-07-28T00:45:36;1.52;;;0.70;;
53890;SDS011;41337;51.400;-2.342;2023-07-28T00:50:37;0.70;;;0.57;;
53890;SDS011;41337;51.400;-2.342;2023-07-28T00:55:41;1.00;;;0.70;;
53890;SDS011;41337;51.400;-2.342;2023-07-28T01:00:42;0.70;;;0.70;;
53890;SDS011;41337;51.400;-2.342;2023-07-28T01:11:09;2.42;;;0.52;;
53890;SDS011;41337;51.400;-2.342;2023-07-28T01:16:10;1.05;;;0.40;;
53890;SDS011;41337;51.400;-2.342;2023-07-28T01:21:13;1.38;;;0.50;;
53890;SDS011;41337;51.400;-2.342;2023-07-28T01:26:28;2.20;;;0.50;;
53890;SDS011;41337;51.400;-2.342;2023-07-28T01:31:40;2.90;;;0.43;;
53890;SDS011;41337;51.400;-2.342;2023-07-28T01:36:41;0.55;;;0.30;;
53890;SDS011;41337;51.400;-2.342;2023-07-28T01:41:43;0.38;;;0.32;;
53890;SDS011;41337;51.400;-2.342;2023-07-28T01:46:44;1.48;;;0.40;;
53890;SDS011;41337;51.400;-2.342;2023-07-28T01:51:45;0.50;;;0.40;;
53890;SDS011;41337;51.400;-2.342;2023-07-28T01:56:46;0.47;;;0.40;;
53890;SDS011;41337;51.400;-2.342;2023-07-28T02:01:47;0.73;;;0.50;;
53890;SDS011;41337;51.400;-2.342;2023-07-28T02:06:49;1.58;;;0.32;;
53890;SDS011;41337;51.400;-2.342;2023-07-28T02:11:51;1.90;;;0.47;;
53890;SDS011;41337;51.400;-2.342;2023-07-28T02:16:53;0.70;;;0.50;;
53890;SDS011;41337;51.400;-2.342;2023-07-28T02:21:53;1.05;;;0.70;;
53890;SDS011;41337;51.400;-2.342;2023-07-28T02:26:54;0.82;;;0.60;;
53890;SDS011;41337;51.400;-2.342;2023-07-28T02:31:56;4.93;;;0.70;;
53890;SDS011;41337;51.400;-2.342;2023-07-28T02:36:57;1.17;;;0.52;;
53890;SDS011;41337;51.400;-2.342;2023-07-28T02:41:58;1.48;;;0.82;;
53890;SDS011;41337;51.400;-2.342;2023-07-28T02:46:59;1.58;;;0.90;;
53890;SDS011;41337;51.400;-2.342;2023-07-28T02:52:01;1.55;;;0.70;;
53890;SDS011;41337;51.400;-2.342;2023-07-28T02:57:03;1.50;;;0.50;;
53890;SDS011;41337;51.400;-2.342;2023-07-28T03:02:04;2.50;;;0.50;;
53890;SDS011;41337;51.400;-2.342;2023-07-28T03:07:06;0.50;;;0.50;;
53890;SDS011;41337;51.400;-2.342;2023-07-28T03:12:07;1.08;;;0.40;;
53890;SDS011;41337;51.400;-2.342;2023-07-28T03:17:09;0.40;;;0.40;;
53890;SDS011;41337;51.400;-2.342;2023-07-28T03:22:10;5.07;;;0.38;;
53890;SDS011;41337;51.400;-2.342;2023-07-28T03:27:11;1.02;;;0.30;;
53890;SDS011;41337;51.400;-2.342;2023-07-28T03:32:11;2.40;;;0.35;;
53890;SDS011;41337;51.400;-2.342;2023-07-28T03:37:12;0.93;;;0.57;;
53890;SDS011;41337;51.400;-2.342;2023-07-28T03:42:13;1.48;;;0.60;;
53890;SDS011;41337;51.400;-2.342;2023-07-28T03:47:15;1.40;;;0.40;;
53890;SDS011;41337;51.400;-2.342;2023-07-28T03:52:16;1.27;;;0.50;;
53890;SDS011;41337;51.400;-2.342;2023-07-28T03:57:17;0.93;;;0.50;;
53890;SDS011;41337;51.400;-2.342;2023-07-28T04:02:18;1.20;;;0.60;;
53890;SDS011;41337;51.400;-2.342;2023-07-28T04:07:19;1.88;;;0.60;;
53890;SDS011;41337;51.400;-2.342;2023-07-28T04:12:20;0.80;;;0.40;;
53890;SDS011;41337;51.400;-2.342;2023-07-28T04:17:20;1.92;;;0.77;;
53890;SDS011;41337;51.400;-2.342;2023-07-28T04:22:21;2.70;;;0.38;;
53890;SDS011;41337;51.400;-2.342;2023-07-28T04:27:22;1.75;;;0.40;;
53890;SDS011;41337;51.400;-2.342;2023-07-28T04:32:23;0.40;;;0.40;;
53890;SDS011;41337;51.400;-2.342;2023-07-28T04:37:24;0.43;;;0.35;;
53890;SDS011;41337;51.400;-2.342;2023-07-28T04:42:25;0.85;;;0.50;;
53890;SDS011;41337;51.400;-2.342;2023-07-28T04:47:26;0.65;;;0.50;;
53890;SDS011;41337;51.400;-2.342;2023-07-28T04:52:27;1.75;;;0.68;;
53890;SDS011;41337;51.400;-2.342;2023-07-28T04:57:28;1.13;;;0.70;;
53890;SDS011;41337;51.400;-2.342;2023-07-28T05:02:29;1.10;;;0.60;;
53890;SDS011;41337;51.400;-2.342;2023-07-28T05:07:30;0.98;;;0.60;;
53890;SDS011;41337;51.400;-2.342;2023-07-28T05:12:31;1.48;;;0.57;;
53890;SDS011;41337;51.400;-2.342;2023-07-28T05:17:31;0.50;;;0.50;;
53890;SDS011;41337;51.400;-2.342;2023-07-28T05:22:32;0.85;;;0.40;;
53890;SDS011;41337;51.400;-2.342;2023-07-28T05:27:33;0.60;;;0.57;;
53890;SDS011;41337;51.400;-2.342;2023-07-28T05:32:34;1.90;;;0.40;;
53890;SDS011;41337;51.400;-2.342;2023-07-28T05:37:35;0.40;;;0.40;;
53890;SDS011;41337;51.400;-2.342;2023-07-28T05:42:35;1.00;;;0.60;;
53890;SDS011;41337;51.400;-2.342;2023-07-28T05:47:36;1.35;;;0.45;;
53890;SDS011;41337;51.400;-2.342;2023-07-28T05:52:37;0.65;;;0.47;;
53890;SDS011;41337;51.400;-2.342;2023-07-28T05:57:38;0.50;;;0.40;;
53890;SDS011;41337;51.400;-2.342;2023-07-28T06:02:39;0.40;;;0.40;;
53890;SDS011;41337;51.400;-2.342;2023-07-28T06:07:39;0.50;;;0.50;;
53890;SDS011;41337;51.400;-2.342;2023-07-28T06:12:41;0.80;;;0.30;;
53890;SDS011;41337;51.400;-2.342;2023-07-28T06:17:41;1.10;;;0.50;;
53890;SDS011;41337;51.400;-2.342;2023-07-28T06:22:42;1.95;;;0.38;;
53890;SDS011;41337;51.400;-2.342;2023-07-28T06:27:43;1.42;;;0.50;;
53890;SDS011;41337;51.400;-2.342;2023-07-28T06:32:45;0.80;;;0.40;;
53890;SDS011;41337;51.400;-2.342;2023-07-28T06:37:47;0.85;;;0.40;;
53890;SDS011;41337;51.400;-2.342;2023-07-28T06:42:48;1.55;;;0.40;;
53890;SDS011;41337;51.400;-2.342;2023-07-28T06:47:49;1.42;;;0.60;;
53890;SDS011;41337;51.400;-2.342;2023-07-28T06:52:51;0.60;;;0.60;;
53890;SDS011;41337;51.400;-2.342;2023-07-28T06:57:52;1.23;;;0.70;;
53890;SDS011;41337;51.400;-2.342;2023-07-28T07:02:53;2.03;;;1.17;;
53890;SDS011;41337;51.400;-2.342;2023-07-28T07:07:54;1.20;;;0.88;;
53890;SDS011;41337;51.400;-2.342;2023-07-28T07:12:55;1.05;;;0.63;;
53890;SDS011;41337;51.400;-2.342;2023-07-28T07:17:57;1.85;;;0.93;;
53890;SDS011;41337;51.400;-2.342;2023-07-28T07:22:57;1.83;;;0.73;;
53890;SDS011;41337;51.400;-2.342;2023-07-28T07:27:58;0.60;;;0.57;;
53890;SDS011;41337;51.400;-2.342;2023-07-28T07:32:59;4.60;;;0.98;;
53890;SDS011;41337;51.400;-2.342;2023-07-28T07:38:17;3.80;;;0.70;;
53890;SDS011;41337;51.400;-2.342;2023-07-28T07:43:20;0.80;;;0.50;;
53890;SDS011;41337;51.400;-2.342;2023-07-28T07:48:21;2.25;;;0.70;;
53890;SDS011;41337;51.400;-2.342;2023-07-28T07:53:23;1.88;;;0.80;;
53890;SDS011;41337;51.400;-2.342;2023-07-28T07:58:24;0.93;;;0.63;;
53890;SDS011;41337;51.400;-2.342;2023-07-28T08:03:25;1.50;;;0.90;;
53890;SDS011;41337;51.400;-2.342;2023-07-28T08:08:27;3.22;;;0.93;;
53890;SDS011;41337;51.400;-2.342;2023-07-28T08:13:30;1.13;;;0.60;;
53890;SDS011;41337;51.400;-2.342;2023-07-28T08:18:31;2.47;;;0.70;;
53890;SDS011;41337;51.400;-2.342;2023-07-28T08:23:32;3.10;;;0.60;;
53890;SDS011;41337;51.400;-2.342;2023-07-28T08:28:34;0.73;;;0.55;;
53890;SDS011;41337;51.400;-2.342;2023-07-28T08:38:47;2.13;;;0.80;;
53890;SDS011;41337;51.400;-2.342;2023-07-28T08:43:49;2.90;;;0.60;;
53890;SDS011;41337;51.400;-2.342;2023-07-28T08:48:51;2.17;;;0.60;;
53890;SDS011;41337;51.400;-2.342;2023-07-28T08:53:53;1.52;;;0.70;;
53890;SDS011;41337;51.400;-2.342;2023-07-28T08:58:58;0.43;;;0.43;;
53890;SDS011;41337;51.400;-2.342;2023-07-28T09:03:59;0.73;;;0.40;;
53890;SDS011;41337;51.400;-2.342;2023-07-28T09:09:00;0.60;;;0.50;;
53890;SDS011;41337;51.400;-2.342;2023-07-28T09:14:01;1.00;;;0.88;;
53890;SDS011;41337;51.400;-2.342;2023-07-28T09:19:06;0.50;;;0.38;;
53890;SDS011;41337;51.400;-2.342;2023-07-28T09:24:11;0.47;;;0.30;;
53890;SDS011;41337;51.400;-2.342;2023-07-28T09:29:14;3.15;;;0.45;;
53890;SDS011;41337;51.400;-2.342;2023-07-28T09:34:24;1.33;;;0.45;;
53890;SDS011;41337;51.400;-2.342;2023-07-28T09:39:26;1.15;;;0.50;;
53890;SDS011;41337;51.400;-2.342;2023-07-28T09:44:28;1.88;;;0.95;;
53890;SDS011;41337;51.400;-2.342;2023-07-28T09:49:34;3.78;;;0.50;;
53890;SDS011;41337;51.400;-2.342;2023-07-28T09:54:40;0.70;;;0.40;;
53890;SDS011;41337;51.400;-2.342;2023-07-28T09:59:43;0.88;;;0.40;;
53890;SDS011;41337;51.400;-2.342;2023-07-28T10:04:47;2.88;;;0.40;;
53890;SDS011;41337;51.400;-2.342;2023-07-28T10:09:47;0.75;;;0.40;;
53890;SDS011;41337;51.400;-2.342;2023-07-28T10:14:59;0.40;;;0.35;;
53890;SDS011;41337;51.400;-2.342;2023-07-28T10:20:04;0.68;;;0.40;;
53890;SDS011;41337;51.400;-2.342;2023-07-28T10:25:08;0.43;;;0.43;;
53890;SDS011;41337;51.400;-2.342;2023-07-28T10:30:11;0.77;;;0.50;;
53890;SDS011;41337;51.400;-2.342;2023-07-28T10:40:28;0.70;;;0.50;;
53890;SDS011;41337;51.400;-2.342;2023-07-28T10:45:31;1.60;;;0.50;;
53890;SDS011;41337;51.400;-2.342;2023-07-28T10:50:33;1.33;;;0.50;;
53890;SDS011;41337;51.400;-2.342;2023-07-28T10:55:34;0.60;;;0.50;;
53890;SDS011;41337;51.400;-2.342;2023-07-28T11:00:35;1.30;;;0.70;;
53890;SDS011;41337;51.400;-2.342;2023-07-28T11:05:36;0.65;;;0.63;;
53890;SDS011;41337;51.400;-2.342;2023-07-28T11:10:37;0.75;;;0.52;;
53890;SDS011;41337;51.400;-2.342;2023-07-28T11:15:39;1.48;;;0.50;;
53890;SDS011;41337;51.400;-2.342;2023-07-28T11:20:40;0.70;;;0.65;;
53890;SDS011;41337;51.400;-2.342;2023-07-28T11:25:42;2.55;;;0.65;;
53890;SDS011;41337;51.400;-2.342;2023-07-28T11:30:44;1.85;;;0.70;;
53890;SDS011;41337;51.400;-2.342;2023-07-28T11:35:47;1.13;;;0.93;;
53890;SDS011;41337;51.400;-2.342;2023-07-28T11:40:49;3.63;;;0.88;;
53890;SDS011;41337;51.400;-2.342;2023-07-28T11:45:51;1.40;;;1.00;;
53890;SDS011;41337;51.400;-2.342;2023-07-28T11:50:52;3.03;;;0.70;;
53890;SDS011;41337;51.400;-2.342;2023-07-28T11:55:55;0.70;;;0.70;;
53890;SDS011;41337;51.400;-2.342;2023-07-28T12:00:58;2.85;;;0.75;;
53890;SDS011;41337;51.400;-2.342;2023-07-28T12:06:03;1.67;;;0.65;;
53890;SDS011;41337;51.400;-2.342;2023-07-28T12:16:30;1.50;;;0.80;;
53890;SDS011;41337;51.400;-2.342;2023-07-28T12:21:41;0.80;;;0.70;;
53890;SDS011;41337;51.400;-2.342;2023-07-28T12:26:42;1.23;;;0.98;;
53890;SDS011;41337;51.400;-2.342;2023-07-28T12:31:45;1.00;;;0.80;;
53890;SDS011;41337;51.400;-2.342;2023-07-28T12:36:46;0.85;;;0.73;;
53890;SDS011;41337;51.400;-2.342;2023-07-28T12:41:46;1.30;;;0.70;;
53890;SDS011;41337;51.400;-2.342;2023-07-28T12:46:47;1.20;;;0.68;;
53890;SDS011;41337;51.400;-2.342;2023-07-28T12:51:50;1.55;;;0.50;;
53890;SDS011;41337;51.400;-2.342;2023-07-28T12:56:52;0.50;;;0.50;;
53890;SDS011;41337;51.400;-2.342;2023-07-28T13:01:56;3.05;;;0.60;;
53890;SDS011;41337;51.400;-2.342;2023-07-28T13:06:57;2.95;;;0.85;;
53890;SDS011;41337;51.400;-2.342;2023-07-28T13:11:57;1.17;;;0.70;;
53890;SDS011;41337;51.400;-2.342;2023-07-28T13:16:58;0.88;;;0.80;;
53890;SDS011;41337;51.400;-2.342;2023-07-28T13:21:59;1.42;;;0.63;;
53890;SDS011;41337;51.400;-2.342;2023-07-28T13:27:00;0.68;;;0.68;;
53890;SDS011;41337;51.400;-2.342;2023-07-28T13:32:01;2.15;;;0.88;;
53890;SDS011;41337;51.400;-2.342;2023-07-28T13:37:02;0.90;;;0.90;;
53890;SDS011;41337;51.400;-2.342;2023-07-28T13:42:04;1.15;;;0.73;;
53890;SDS011;41337;51.400;-2.342;2023-07-28T13:47:05;1.50;;;0.93;;
53890;SDS011;41337;51.400;-2.342;2023-07-28T13:52:06;4.32;;;1.30;;
53890;SDS011;41337;51.400;-2.342;2023-07-28T13:57:07;2.35;;;1.20;;
53890;SDS011;41337;51.400;-2.342;2023-07-28T14:02:08;2.92;;;1.65;;
53890;SDS011;41337;51.400;-2.342;2023-07-28T14:07:09;1.42;;;0.80;;
53890;SDS011;41337;51.400;-2.342;2023-07-28T14:12:10;2.60;;;0.73;;
53890;SDS011;41337;51.400;-2.342;2023-07-28T14:17:11;1.42;;;0.60;;
53890;SDS011;41337;51.400;-2.342;2023-07-28T14:22:12;0.90;;;0.60;;
53890;SDS011;41337;51.400;-2.342;2023-07-28T14:27:13;1.20;;;0.50;;
53890;SDS011;41337;51.400;-2.342;2023-07-28T14:32:13;0.55;;;0.45;;
53890;SDS011;41337;51.400;-2.342;2023-07-28T14:37:14;0.88;;;0.60;;
53890;SDS011;41337;51.400;-2.342;2023-07-28T14:42:15;1.70;;;0.47;;
53890;SDS011;41337;51.400;-2.342;2023-07-28T14:47:16;1.25;;;0.45;;
53890;SDS011;41337;51.400;-2.342;2023-07-28T14:52:17;1.85;;;0.52;;
53890;SDS011;41337;51.400;-2.342;2023-07-28T14:57:18;2.15;;;1.05;;
53890;SDS011;41337;51.400;-2.342;2023-07-28T15:02:19;0.88;;;0.40;;
53890;SDS011;41337;51.400;-2.342;2023-07-28T15:07:19;2.38;;;0.52;;
53890;SDS011;41337;51.400;-2.342;2023-07-28T15:12:22;1.05;;;0.82;;
53890;SDS011;41337;51.400;-2.342;2023-07-28T15:17:24;1.80;;;0.80;;
53890;SDS011;41337;51.400;-2.342;2023-07-28T15:22:24;1.10;;;0.60;;
53890;SDS011;41337;51.400;-2.342;2023-07-28T15:27:26;1.38;;;0.65;;
53890;SDS011;41337;51.400;-2.342;2023-07-28T15:32:27;1.80;;;0.63;;
53890;SDS011;41337;51.400;-2.342;2023-07-28T15:37:31;0.95;;;0.80;;
53890;SDS011;41337;51.400;-2.342;2023-07-28T15:42:32;1.60;;;0.70;;
53890;SDS011;41337;51.400;-2.342;2023-07-28T15:47:33;3.30;;;1.10;;
53890;SDS011;41337;51.400;-2.342;2023-07-28T15:52:36;3.88;;;1.08;;
53890;SDS011;41337;51.400;-2.342;2023-07-28T15:57:36;1.73;;;0.80;;
53890;SDS011;41337;51.400;-2.342;2023-07-28T16:02:37;3.25;;;1.00;;
53890;SDS011;41337;51.400;-2.342;2023-07-28T16:07:38;2.72;;;0.75;;
53890;SDS011;41337;51.400;-2.342;2023-07-28T16:12:39;2.38;;;0.90;;
53890;SDS011;41337;51.400;-2.342;2023-07-28T16:17:40;2.22;;;0.70;;
53890;SDS011;41337;51.400;-2.342;2023-07-28T16:22:41;1.98;;;0.60;;
53890;SDS011;41337;51.400;-2.342;2023-07-28T16:27:42;2.30;;;0.75;;
53890;SDS011;41337;51.400;-2.342;2023-07-28T16:33:04;3.42;;;0.60;;
53890;SDS011;41337;51.400;-2.342;2023-07-28T16:38:04;3.75;;;1.05;;
53890;SDS011;41337;51.400;-2.342;2023-07-28T16:43:06;1.73;;;0.90;;
53890;SDS011;41337;51.400;-2.342;2023-07-28T16:48:07;3.13;;;1.10;;
53890;SDS011;41337;51.400;-2.342;2023-07-28T16:53:08;4.88;;;1.17;;
53890;SDS011;41337;51.400;-2.342;2023-07-28T16:58:09;3.17;;;1.00;;
53890;SDS011;41337;51.400;-2.342;2023-07-28T17:03:10;2.03;;;0.88;;
53890;SDS011;41337;51.400;-2.342;2023-07-28T17:08:11;4.18;;;1.02;;
53890;SDS011;41337;51.400;-2.342;2023-07-28T17:13:11;1.30;;;0.77;;
53890;SDS011;41337;51.400;-2.342;2023-07-28T17:18:12;3.65;;;0.88;;
53890;SDS011;41337;51.400;-2.342;2023-07-28T17:23:13;3.08;;;0.93;;
53890;SDS011;41337;51.400;-2.342;2023-07-28T17:28:14;1.40;;;0.98;;
53890;SDS011;41337;51.400;-2.342;2023-07-28T17:33:15;2.17;;;0.88;;
53890;SDS011;41337;51.400;-2.342;2023-07-28T17:38:16;3.53;;;0.88;;
53890;SDS011;41337;51.400;-2.342;2023-07-28T17:43:17;2.97;;;0.75;;
53890;SDS011;41337;51.400;-2.342;2023-07-28T17:48:18;2.60;;;0.65;;
53890;SDS011;41337;51.400;-2.342;2023-07-28T17:53:19;4.32;;;0.90;;
53890;SDS011;41337;51.400;-2.342;2023-07-28T17:58:20;2.20;;;0.70;;
53890;SDS011;41337;51.400;-2.342;2023-07-28T18:03:20;2.30;;;0.82;;
53890;SDS011;41337;51.400;-2.342;2023-07-28T18:08:22;1.08;;;0.63;;
53890;SDS011;41337;51.400;-2.342;2023-07-28T18:13:25;1.20;;;0.70;;
53890;SDS011;41337;51.400;-2.342;2023-07-28T18:18:26;3.33;;;0.98;;
53890;SDS011;41337;51.400;-2.342;2023-07-28T18:23:27;0.77;;;0.60;;
53890;SDS011;41337;51.400;-2.342;2023-07-28T18:28:28;2.20;;;0.73;;
53890;SDS011;41337;51.400;-2.342;2023-07-28T18:33:28;4.85;;;0.75;;
53890;SDS011;41337;51.400;-2.342;2023-07-28T18:38:29;1.90;;;0.75;;
53890;SDS011;41337;51.400;-2.342;2023-07-28T18:43:31;2.97;;;1.05;;
53890;SDS011;41337;51.400;-2.342;2023-07-28T18:48:32;1.02;;;0.75;;
53890;SDS011;41337;51.400;-2.342;2023-07-28T18:53:33;1.75;;;0.82;;
53890;SDS011;41337;51.400;-2.342;2023-07-28T18:58:34;1.70;;;1.30;;
53890;SDS011;41337;51.400;-2.342;2023-07-28T19:03:35;1.75;;;0.80;;
53890;SDS011;41337;51.400;-2.342;2023-07-28T19:08:36;1.83;;;0.90;;
53890;SDS011;41337;51.400;-2.342;2023-07-28T19:13:36;2.13;;;1.08;;
53890;SDS011;41337;51.400;-2.342;2023-07-28T19:18:37;2.05;;;0.80;;
53890;SDS011;41337;51.400;-2.342;2023-07-28T19:23:38;1.65;;;1.10;;
53890;SDS011;41337;51.400;-2.342;2023-07-28T19:28:40;3.72;;;1.17;;
53890;SDS011;41337;51.400;-2.342;2023-07-28T19:33:40;11.77;;;2.13;;
53890;SDS011;41337;51.400;-2.342;2023-07-28T19:38:41;3.42;;;1.60;;
53890;SDS011;41337;51.400;-2.342;2023-07-28T19:43:43;3.15;;;2.22;;
53890;SDS011;41337;51.400;-2.342;2023-07-28T19:48:45;2.40;;;1.58;;
53890;SDS011;41337;51.400;-2.342;2023-07-28T19:53:46;3.33;;;1.65;;
53890;SDS011;41337;51.400;-2.342;2023-07-28T19:58:47;3.65;;;1.90;;
53890;SDS011;41337;51.400;-2.342;2023-07-28T20:03:48;2.53;;;1.95;;
53890;SDS011;41337;51.400;-2.342;2023-07-28T20:08:49;3.92;;;1.70;;
53890;SDS011;41337;51.400;-2.342;2023-07-28T20:13:49;2.35;;;1.50;;
53890;SDS011;41337;51.400;-2.342;2023-07-28T20:18:51;4.03;;;2.10;;
53890;SDS011;41337;51.400;-2.342;2023-07-28T20:23:57;3.97;;;2.15;;
53890;SDS011;41337;51.400;-2.342;2023-07-28T20:28:58;4.78;;;2.22;;
53890;SDS011;41337;51.400;-2.342;2023-07-28T20:33:59;2.58;;;1.80;;
53890;SDS011;41337;51.400;-2.342;2023-07-28T20:39:00;2.58;;;2.00;;
53890;SDS011;41337;51.400;-2.342;2023-07-28T20:44:02;5.18;;;1.73;;
53890;SDS011;41337;51.400;-2.342;2023-07-28T20:49:05;4.43;;;2.75;;
53890;SDS011;41337;51.400;-2.342;2023-07-28T20:54:06;4.95;;;1.85;;
53890;SDS011;41337;51.400;-2.342;2023-07-28T20:59:07;4.38;;;2.08;;
53890;SDS011;41337;51.400;-2.342;2023-07-28T21:04:07;5.15;;;2.13;;
53890;SDS011;41337;51.400;-2.342;2023-07-28T21:09:14;5.28;;;1.55;;
53890;SDS011;41337;51.400;-2.342;2023-07-28T21:14:15;4.05;;;2.45;;
53890;SDS011;41337;51.400;-2.342;2023-07-28T21:19:18;4.03;;;1.73;;
53890;SDS011;41337;51.400;-2.342;2023-07-28T21:24:19;4.10;;;1.70;;
53890;SDS011;41337;51.400;-2.342;2023-07-28T21:29:20;3.97;;;1.80;;
53890;SDS011;41337;51.400;-2.342;2023-07-28T21:34:21;7.00;;;2.08;;
53890;SDS011;41337;51.400;-2.342;2023-07-28T21:39:23;2.58;;;1.88;;
53890;SDS011;41337;51.400;-2.342;2023-07-28T21:44:25;5.10;;;2.10;;
53890;SDS011;41337;51.400;-2.342;2023-07-28T21:49:29;3.22;;;2.50;;
53890;SDS011;41337;51.400;-2.342;2023-07-28T21:54:30;2.75;;;2.55;;
53890;SDS011;41337;51.400;-2.342;2023-07-28T21:59:32;4.85;;;2.70;;
53890;SDS011;41337;51.400;-2.342;2023-07-28T22:04:34;7.18;;;2.65;;
53890;SDS011;41337;51.400;-2.342;2023-07-28T22:09:37;4.65;;;2.10;;
53890;SDS011;41337;51.400;-2.342;2023-07-28T22:14:37;5.05;;;2.50;;
53890;SDS011;41337;51.400;-2.342;2023-07-28T22:19:38;3.58;;;2.55;;
53890;SDS011;41337;51.400;-2.342;2023-07-28T22:24:47;4.75;;;2.60;;
53890;SDS011;41337;51.400;-2.342;2023-07-28T22:29:47;5.60;;;2.60;;
53890;SDS011;41337;51.400;-2.342;2023-07-28T22:34:51;5.22;;;2.72;;
53890;SDS011;41337;51.400;-2.342;2023-07-28T22:39:53;9.70;;;2.72;;
53890;SDS011;41337;51.400;-2.342;2023-07-28T22:44:55;2.90;;;2.33;;
53890;SDS011;41337;51.400;-2.342;2023-07-28T22:49:56;5.22;;;2.53;;
53890;SDS011;41337;51.400;-2.342;2023-07-28T22:54:57;8.20;;;3.13;;
53890;SDS011;41337;51.400;-2.342;2023-07-28T22:59:57;4.57;;;2.70;;
53890;SDS011;41337;51.400;-2.342;2023-07-28T23:04:59;5.65;;;3.65;;
53890;SDS011;41337;51.400;-2.342;2023-07-28T23:10:01;4.47;;;2.60;;
53890;SDS011;41337;51.400;-2.342;2023-07-28T23:41:28;4.22;;;2.78;;
